• Join FlightAware (Why Join?)
  • Login
  • US Flag 
04:04PM EDT


 

Airport Tracker/Info


-or-


 

Live Flight TrackerFlight Track Log ✈ AFL150 ✈ 17-Dec-2013 ✈ UUEE / SVO - MUHA / HAV

Flight Track Log - Related Links

Times and Time Zones

All times are in EST time to prevent confusion due to time zone crossing. See the AFL150 flight status page for this flight to view local times or setup timezone preferences in your user account.

Time Position Orientation Groundspeed Altitude Reporting Facility
EST Latitude Longitude Course Direction KTS MPH feet Rate Location/Type
08:06AM 56.0860 37.1405 320° Northwest  Level FlightAware Approximate
08:07AM 56.1766 37.0052 320° Northwest  Level FlightAware Approximate
08:08AM 56.2671 36.8693 320° Northwest  Level FlightAware Approximate
08:09AM 56.3575 36.7327 320° Northwest  Level FlightAware Approximate
08:10AM 56.4477 36.5955 320° Northwest  Level FlightAware Approximate
08:11AM 56.5378 36.4576 320° Northwest  Level FlightAware Approximate
08:12AM 56.6277 36.3191 320° Northwest  Level FlightAware Approximate
08:13AM 56.7174 36.1800 320° Northwest  Level FlightAware Approximate
08:14AM 56.8070 36.0401 320° Northwest  Level FlightAware Approximate
08:15AM 56.8965 35.8996 319° Northwest  Level FlightAware Approximate
08:16AM 56.9857 35.7584 319° Northwest  Level FlightAware Approximate
08:17AM 57.0749 35.6165 319° Northwest  Level FlightAware Approximate
08:18AM 57.1638 35.4740 319° Northwest  Level FlightAware Approximate
08:19AM 57.2526 35.3307 319° Northwest  Level FlightAware Approximate
08:20AM 57.3413 35.1868 319° Northwest  Level FlightAware Approximate
08:21AM 57.4297 35.0422 319° Northwest  Level FlightAware Approximate
08:22AM 57.5180 34.8968 319° Northwest  Level FlightAware Approximate
08:23AM 57.5850 34.7160 315° West  Level Estimated
08:24AM 57.6688 34.5611 315° West  Level FlightAware Approximate
08:25AM 57.7524 34.4054 315° West  Level FlightAware Approximate
08:26AM 57.8358 34.2491 315° West  Level FlightAware Approximate
08:27AM 57.9191 34.0920 315° West  Level FlightAware Approximate
08:28AM 58.0021 33.9342 315° West  Level FlightAware Approximate
08:29AM 58.0849 33.7757 315° West  Level FlightAware Approximate
08:30AM 58.1676 33.6164 315° West  Level FlightAware Approximate
08:31AM 58.2500 33.4564 314° West  Level FlightAware Approximate
08:32AM 58.3323 33.2957 314° West  Level FlightAware Approximate
08:33AM 58.4143 33.1342 314° West  Level FlightAware Approximate
08:34AM 58.4962 32.9719 314° West  Level FlightAware Approximate
08:35AM 58.5778 32.8089 314° West  Level FlightAware Approximate
08:36AM 58.6592 32.6451 314° West  Level FlightAware Approximate
08:37AM 58.7404 32.4806 314° West  Level FlightAware Approximate
08:38AM 58.8214 32.3153 313° West  Level FlightAware Approximate
08:39AM 58.9022 32.1492 313° West  Level FlightAware Approximate
08:40AM 58.9828 31.9823 313° West  Level FlightAware Approximate
08:41AM 59.0631 31.8147 313° West  Level FlightAware Approximate
08:42AM 59.1433 31.6462 313° West  Level FlightAware Approximate
08:43AM 59.2232 31.4770 313° West  Level FlightAware Approximate
08:44AM 59.3029 31.3070 313° West  Level FlightAware Approximate
08:45AM 59.3824 31.1362 312° West  Level FlightAware Approximate
08:46AM 59.4617 30.9646 312° West  Level FlightAware Approximate
08:47AM 59.5407 30.7922 312° West  Level FlightAware Approximate
08:48AM 59.6195 30.6190 312° West  Level FlightAware Approximate
08:49AM 59.6981 30.4449 312° West  Level FlightAware Approximate
08:50AM 59.7764 30.2701 312° West  Level FlightAware Approximate
08:51AM 59.8545 30.0944 312° West  Level FlightAware Approximate
08:52AM 59.9324 29.9179 311° West  Level FlightAware Approximate
08:53AM 60.0100 29.7406 311° West  Level FlightAware Approximate
08:54AM 60.0691 29.5363 311° West  Level Estimated
08:55AM 60.1457 29.3563 311° West  Level FlightAware Approximate
08:56AM 60.2219 29.1754 310° West  Level FlightAware Approximate
08:57AM 60.2980 28.9937 310° West  Level FlightAware Approximate
08:58AM 60.3737 28.8112 310° West  Level FlightAware Approximate
08:59AM 60.4492 28.6278 310° West  Level FlightAware Approximate
09:00AM 60.5245 28.4436 310° West  Level FlightAware Approximate
09:01AM 60.5995 28.2584 310° West  Level FlightAware Approximate
09:02AM 60.6743 28.0725 309° West  Level FlightAware Approximate
09:03AM 60.7488 27.8857 309° West  Level FlightAware Approximate
09:04AM 60.8230 27.6980 309° West  Level FlightAware Approximate
09:05AM 60.8970 27.5094 309° West  Level FlightAware Approximate
09:06AM 60.9707 27.3200 309° West  Level FlightAware Approximate
09:07AM 61.0441 27.1296 309° West  Level FlightAware Approximate
09:08AM 61.1173 26.9384 308° West  Level FlightAware Approximate
09:09AM 61.1902 26.7463 308° West  Level FlightAware Approximate
09:10AM 61.2628 26.5534 308° West  Level FlightAware Approximate
09:11AM 61.3352 26.3595 308° West  Level FlightAware Approximate
09:12AM 61.4072 26.1647 308° West  Level FlightAware Approximate
09:13AM 61.4790 25.9691 308° West  Level FlightAware Approximate
09:14AM 61.5505 25.7725 307° West  Level FlightAware Approximate
09:15AM 61.6218 25.5750 307° West  Level FlightAware Approximate
09:16AM 61.6927 25.3766 307° West  Level FlightAware Approximate
09:17AM 61.7634 25.1773 307° West  Level FlightAware Approximate
09:18AM 61.8337 24.9771 307° West  Level FlightAware Approximate
09:19AM 61.9038 24.7760 307° West  Level FlightAware Approximate
09:20AM 61.9736 24.5739 306° West  Level FlightAware Approximate
09:21AM 62.0430 24.3710 306° West  Level FlightAware Approximate
09:22AM 62.1122 24.1671 306° West  Level FlightAware Approximate
09:23AM 62.1811 23.9622 306° West  Level FlightAware Approximate
09:24AM 62.2497 23.7565 306° West  Level FlightAware Approximate
09:25AM 62.3180 23.5498 305° West  Level FlightAware Approximate
09:26AM 62.3859 23.3421 305° West  Level FlightAware Approximate
09:27AM 62.4536 23.1336 305° West  Level FlightAware Approximate
09:28AM 62.5209 22.9240 305° West  Level FlightAware Approximate
09:29AM 62.5879 22.7135 305° West  Level FlightAware Approximate
09:30AM 62.6546 22.5021 305° West  Level FlightAware Approximate
09:31AM 62.7210 22.2897 304° West  Level FlightAware Approximate
09:32AM 62.7871 22.0764 304° West  Level FlightAware Approximate
09:33AM 62.8528 21.8621 304° West  Level FlightAware Approximate
09:34AM 62.9182 21.6469 304° West  Level FlightAware Approximate
09:35AM 62.9833 21.4307 304° West  Level FlightAware Approximate
09:36AM 63.0481 21.2135 303° West  Level FlightAware Approximate
09:37AM 63.1125 20.9954 303° West  Level FlightAware Approximate
09:38AM 63.1766 20.7763 303° West  Level FlightAware Approximate
09:39AM 63.2403 20.5562 303° West  Level FlightAware Approximate
09:40AM 63.3037 20.3351 303° West  Level FlightAware Approximate
09:41AM 63.3668 20.1131 302° West  Level FlightAware Approximate
09:42AM 63.4295 19.8902 302° West  Level FlightAware Approximate
09:43AM 63.4918 19.6662 302° West  Level FlightAware Approximate
09:44AM 63.5538 19.4412 302° West  Level FlightAware Approximate
09:45AM 63.6155 19.2153 302° West  Level FlightAware Approximate
09:46AM 63.6768 18.9884 301° West  Level FlightAware Approximate
09:47AM 63.7377 18.7605 301° West  Level FlightAware Approximate
09:48AM 63.7983 18.5317 301° West  Level FlightAware Approximate
09:49AM 63.8585 18.3018 301° West  Level FlightAware Approximate
09:50AM 63.9184 18.0710 301° West  Level FlightAware Approximate
09:51AM 63.9779 17.8392 300° West  Level FlightAware Approximate
09:52AM 64.0370 17.6064 300° West  Level FlightAware Approximate
09:53AM 64.0957 17.3726 300° West  Level FlightAware Approximate
09:54AM 64.1541 17.1379 300° West  Level FlightAware Approximate
09:55AM 64.2121 16.9021 300° West  Level FlightAware Approximate
09:56AM 64.2697 16.6654 299° West  Level FlightAware Approximate
09:57AM 64.3269 16.4277 299° West  Level FlightAware Approximate
09:58AM 64.3837 16.1889 299° West  Level FlightAware Approximate
09:59AM 64.4401 15.9493 299° West  Level FlightAware Approximate
10:00AM 64.4962 15.7086 298° West  Level FlightAware Approximate
10:01AM 64.5518 15.4669 298° West  Level FlightAware Approximate
10:02AM 64.6071 15.2242 298° West  Level FlightAware Approximate
10:03AM 64.6620 14.9806 298° West  Level FlightAware Approximate
10:04AM 64.7164 14.7360 298° West  Level FlightAware Approximate
10:05AM 64.7705 14.4904 297° West  Level FlightAware Approximate
10:06AM 64.8241 14.2438 297° West  Level FlightAware Approximate
10:07AM 64.8773 13.9962 297° West  Level FlightAware Approximate
10:08AM 64.9302 13.7477 297° West  Level FlightAware Approximate
10:09AM 64.9826 13.4982 297° West  Level FlightAware Approximate
10:10AM 65.0346 13.2477 296° West  Level FlightAware Approximate
10:11AM 65.0861 12.9962 296° West  Level FlightAware Approximate
10:12AM 65.1373 12.7437 296° West  Level FlightAware Approximate
10:13AM 65.1880 12.4903 296° West  Level FlightAware Approximate
10:14AM 65.2383 12.2359 295° West  Level FlightAware Approximate
10:15AM 65.2881 11.9806 295° West  Level FlightAware Approximate
10:16AM 65.3375 11.7243 295° West  Level FlightAware Approximate
10:17AM 65.3865 11.4670 295° West  Level FlightAware Approximate
10:18AM 65.4351 11.2088 294° West  Level FlightAware Approximate
10:19AM 65.4832 10.9496 294° West  Level FlightAware Approximate
10:20AM 65.5308 10.6895 294° West  Level FlightAware Approximate
10:21AM 65.5780 10.4284 294° West  Level FlightAware Approximate
10:22AM 65.6248 10.1663 293° West  Level FlightAware Approximate
10:23AM 65.6711 9.9034 293° West  Level FlightAware Approximate
10:24AM 65.7170 9.6395 293° West  Level FlightAware Approximate
10:25AM 65.7624 9.3746 293° West  Level FlightAware Approximate
10:26AM 65.8073 9.1088 293° West  Level FlightAware Approximate
10:27AM 65.8518 8.8421 292° West  Level FlightAware Approximate
10:28AM 65.8958 8.5745 292° West  Level FlightAware Approximate
10:29AM 65.9394 8.3060 292° West  Level FlightAware Approximate
10:30AM 65.9824 8.0365 292° West  Level FlightAware Approximate
10:31AM 66.0250 7.7662 291° West  Level FlightAware Approximate
10:32AM 66.0672 7.4949 291° West  Level FlightAware Approximate
10:33AM 66.1088 7.2228 291° West  Level FlightAware Approximate
10:34AM 66.1500 6.9498 291° West  Level FlightAware Approximate
10:35AM 66.1907 6.6758 290° West  Level FlightAware Approximate
10:36AM 66.2309 6.4010 290° West  Level FlightAware Approximate
10:37AM 66.2706 6.1254 290° West  Level FlightAware Approximate
10:38AM 66.3098 5.8488 290° West  Level FlightAware Approximate
10:39AM 66.3485 5.5715 289° West  Level FlightAware Approximate
10:40AM 66.3868 5.2932 289° West  Level FlightAware Approximate
10:41AM 66.4245 5.0141 289° West  Level FlightAware Approximate
10:42AM 66.4617 4.7342 289° West  Level FlightAware Approximate
10:43AM 66.4985 4.4534 288° West  Level FlightAware Approximate
10:44AM 66.5347 4.1719 288° West  Level FlightAware Approximate
10:45AM 66.5704 3.8895 288° West  Level FlightAware Approximate
10:46AM 66.6057 3.6062 288° West  Level FlightAware Approximate
10:47AM 66.6404 3.3222 287° West  Level FlightAware Approximate
10:48AM 66.6746 3.0374 287° West  Level FlightAware Approximate
10:49AM 66.7082 2.7518 287° West  Level FlightAware Approximate
10:50AM 66.7414 2.4655 286° West  Level FlightAware Approximate
10:51AM 66.7740 2.1784 286° West  Level FlightAware Approximate
10:52AM 66.8061 1.8905 286° West  Level FlightAware Approximate
10:53AM 66.8377 1.6019 286° West  Level FlightAware Approximate
10:54AM 66.8688 1.3125 285° West  Level FlightAware Approximate
10:55AM 66.8993 1.0224 285° West  Level FlightAware Approximate
10:56AM 66.9293 0.7316 285° West  Level FlightAware Approximate
10:57AM 66.9588 0.4401 285° West  Level FlightAware Approximate
10:58AM 66.9877 0.1479 284° West  Level FlightAware Approximate
10:59AM 67.0161 -0.1451 284° West  Level FlightAware Approximate
11:00AM 67.0439 -0.4387 284° West  Level FlightAware Approximate
11:01AM 67.0713 -0.7329 284° West  Level FlightAware Approximate
11:02AM 67.0980 -1.0278 283° West  Level FlightAware Approximate
11:03AM 67.1242 -1.3234 283° West  Level FlightAware Approximate
11:04AM 67.1499 -1.6196 283° West  Level FlightAware Approximate
11:05AM 67.1750 -1.9164 282° West  Level FlightAware Approximate
11:06AM 67.1996 -2.2138 282° West  Level FlightAware Approximate
11:07AM 67.2236 -2.5119 282° West  Level FlightAware Approximate
11:08AM 67.2471 -2.8105 282° West  Level FlightAware Approximate
11:09AM 67.2700 -3.1097 281° West  Level FlightAware Approximate
11:10AM 67.2924 -3.4095 281° West  Level FlightAware Approximate
11:11AM 67.3142 -3.7098 281° West  Level FlightAware Approximate
11:12AM 67.3354 -4.0107 281° West  Level FlightAware Approximate
11:13AM 67.3561 -4.3120 280° West  Level FlightAware Approximate
11:14AM 67.3762 -4.6139 280° West  Level FlightAware Approximate
11:15AM 67.3957 -4.9163 280° West  Level FlightAware Approximate
11:16AM 67.4147 -5.2192 279° West  Level FlightAware Approximate
11:17AM 67.4331 -5.5226 279° West  Level FlightAware Approximate
11:18AM 67.4509 -5.8264 279° West  Level FlightAware Approximate
11:19AM 67.4682 -6.1307 279° West  Level FlightAware Approximate
11:20AM 67.4849 -6.4354 278° West  Level FlightAware Approximate
11:21AM 67.5010 -6.7406 278° West  Level FlightAware Approximate
11:22AM 67.5165 -7.0461 278° West  Level FlightAware Approximate
11:23AM 67.5315 -7.3520 277° West  Level FlightAware Approximate
11:24AM 67.5459 -7.6583 277° West  Level FlightAware Approximate
11:25AM 67.5597 -7.9650 277° West  Level FlightAware Approximate
11:26AM 67.5729 -8.2720 277° West  Level FlightAware Approximate
11:27AM 67.5856 -8.5794 276° West  Level FlightAware Approximate
11:28AM 67.5976 -8.8871 276° West  Level FlightAware Approximate
11:29AM 67.6091 -9.1951 276° West  Level FlightAware Approximate
11:30AM 67.6200 -9.5034 275° West  Level FlightAware Approximate
11:31AM 67.6303 -9.8119 275° West  Level FlightAware Approximate
11:32AM 67.6401 -10.1207 275° West  Level FlightAware Approximate
11:33AM 67.6492 -10.4298 275° West  Level FlightAware Approximate
11:34AM 67.6578 -10.7391 274° West  Level FlightAware Approximate
11:35AM 67.6657 -11.0486 274° West  Level FlightAware Approximate
11:36AM 67.6731 -11.3583 274° West  Level FlightAware Approximate
11:37AM 67.6799 -11.6683 273° West  Level FlightAware Approximate
11:38AM 67.6861 -11.9783 273° West  Level FlightAware Approximate
11:39AM 67.6917 -12.2886 273° West  Level FlightAware Approximate
11:40AM 67.6967 -12.5990 273° West  Level FlightAware Approximate
11:41AM 67.7012 -12.9095 272° West  Level FlightAware Approximate
11:42AM 67.7050 -13.2201 272° West  Level FlightAware Approximate
11:43AM 67.7083 -13.5308 272° West  Level FlightAware Approximate
11:44AM 67.7109 -13.8416 271° West  Level FlightAware Approximate
11:45AM 67.7130 -14.1524 271° West  Level FlightAware Approximate
11:46AM 67.7145 -14.4633 271° West  Level FlightAware Approximate
11:47AM 67.7153 -14.7742 271° West  Level FlightAware Approximate
11:48AM 67.7156 -15.0852 270° West  Level FlightAware Approximate
11:49AM 67.7153 -15.3961 270° West  Level FlightAware Approximate
11:50AM 67.7144 -15.7070 270° West  Level FlightAware Approximate
11:51AM 67.7130 -16.0179 269° West  Level FlightAware Approximate
11:52AM 67.7109 -16.3288 269° West  Level FlightAware Approximate
11:53AM 67.7082 -16.6395 269° West  Level FlightAware Approximate
11:54AM 67.7049 -16.9502 269° West  Level FlightAware Approximate
11:55AM 67.7011 -17.2609 268° West  Level FlightAware Approximate
11:56AM 67.6967 -17.5714 268° West  Level FlightAware Approximate
11:57AM 67.6916 -17.8817 268° West  Level FlightAware Approximate
11:58AM 67.6860 -18.1920 267° West  Level FlightAware Approximate
11:59AM 67.6798 -18.5020 267° West  Level FlightAware Approximate
12:00PM 67.6730 -18.8120 267° West  Level FlightAware Approximate
12:01PM 67.6656 -19.1217 267° West  Level FlightAware Approximate
12:02PM 67.6576 -19.4312 266° West  Level FlightAware Approximate
12:03PM 67.6491 -19.7405 266° West  Level FlightAware Approximate
12:04PM 67.6399 -20.0496 266° West  Level FlightAware Approximate
12:05PM 67.6302 -20.3584 265° West  Level FlightAware Approximate
12:06PM 67.6199 -20.6669 265° West  Level FlightAware Approximate
12:07PM 67.6089 -20.9752 265° West  Level FlightAware Approximate
12:08PM 67.5975 -21.2832 265° West  Level FlightAware Approximate
12:09PM 67.5854 -21.5909 264° West  Level FlightAware Approximate
12:10PM 67.5727 -21.8983 264° West  Level FlightAware Approximate
12:11PM 67.5595 -22.2053 264° West  Level FlightAware Approximate
12:12PM 67.5456 -22.5119 263° West  Level FlightAware Approximate
12:13PM 67.5312 -22.8183 263° West  Level FlightAware Approximate
12:14PM 67.5163 -23.1242 263° West  Level FlightAware Approximate
12:15PM 67.5007 -23.4297 263° West  Level FlightAware Approximate
12:16PM 67.4846 -23.7348 262° West  Level FlightAware Approximate
12:17PM 67.4679 -24.0395 262° West  Level FlightAware Approximate
12:18PM 67.4506 -24.3438 262° West  Level FlightAware Approximate
12:19PM 67.4328 -24.6476 261° West  Level FlightAware Approximate
12:20PM 67.4144 -24.9510 261° West  Level FlightAware Approximate
12:21PM 67.3954 -25.2539 261° West  Level FlightAware Approximate
12:22PM 67.3758 -25.5563 261° West  Level FlightAware Approximate
12:23PM 67.3557 -25.8582 260° West  Level FlightAware Approximate
12:24PM 67.3351 -26.1595 260° West  Level FlightAware Approximate
12:25PM 67.3138 -26.4604 260° West  Level FlightAware Approximate
12:26PM 67.2920 -26.7607 259° West  Level FlightAware Approximate
12:27PM 67.2697 -27.0604 259° West  Level FlightAware Approximate
12:28PM 67.2467 -27.3596 259° West  Level FlightAware Approximate
12:29PM 67.2233 -27.6583 259° West  Level FlightAware Approximate
12:30PM 67.1992 -27.9563 258° West  Level FlightAware Approximate
12:31PM 67.1746 -28.2537 258° West  Level FlightAware Approximate
12:32PM 67.1495 -28.5505 258° West  Level FlightAware Approximate
12:33PM 67.1238 -28.8467 258° West  Level FlightAware Approximate
12:34PM 67.0976 -29.1423 257° West  Level FlightAware Approximate
12:35PM 67.0708 -29.4372 257° West  Level FlightAware Approximate
12:36PM 67.0435 -29.7314 257° West  Level FlightAware Approximate
12:37PM 67.0156 -30.0250 256° West  Level FlightAware Approximate
12:38PM 66.9872 -30.3179 256° West  Level FlightAware Approximate
12:39PM 66.9583 -30.6101 256° West  Level FlightAware Approximate
12:40PM 66.9288 -30.9016 256° West  Level FlightAware Approximate
12:41PM 66.8988 -31.1924 255° West  Level FlightAware Approximate
12:42PM 66.8683 -31.4825 255° West  Level FlightAware Approximate
12:43PM 66.8372 -31.7718 255° West  Level FlightAware Approximate
12:44PM 66.8056 -32.0605 255° West  Level FlightAware Approximate
12:45PM 66.7735 -32.3483 254° West  Level FlightAware Approximate
12:46PM 66.7408 -32.6354 254° West  Level FlightAware Approximate
12:47PM 66.7077 -32.9218 254° West  Level FlightAware Approximate
12:48PM 66.6740 -33.2073 254° West  Level FlightAware Approximate
12:49PM 66.6398 -33.4921 253° West  Level FlightAware Approximate
12:50PM 66.6051 -33.7761 253° West  Level FlightAware Approximate
12:51PM 66.5699 -34.0593 253° West  Level FlightAware Approximate
12:52PM 66.5341 -34.3417 252° West  Level FlightAware Approximate
12:53PM 66.4979 -34.6232 252° West  Level FlightAware Approximate
12:54PM 66.4612 -34.9040 252° West  Level FlightAware Approximate
12:55PM 66.4239 -35.1839 252° West  Level FlightAware Approximate
12:56PM 66.3862 -35.4630 251° West  Level FlightAware Approximate
12:57PM 66.3479 -35.7412 251° West  Level FlightAware Approximate
12:58PM 66.3092 -36.0186 251° West  Level FlightAware Approximate
12:59PM 66.2700 -36.2951 251° West  Level FlightAware Approximate
01:00PM 66.2302 -36.5708 250° West  Level FlightAware Approximate
01:01PM 66.1900 -36.8456 250° West  Level FlightAware Approximate
01:02PM 66.1493 -37.1194 250° West  Level FlightAware Approximate
01:03PM 66.1081 -37.3925 250° West  Level FlightAware Approximate
01:04PM 66.0665 -37.6646 249° West  Level FlightAware Approximate
01:05PM 66.0244 -37.9358 249° West  Level FlightAware Approximate
01:06PM 65.9817 -38.2062 249° West  Level FlightAware Approximate
01:07PM 65.9387 -38.4756 249° West  Level FlightAware Approximate
01:08PM 65.8951 -38.7441 248° West  Level FlightAware Approximate
01:09PM 65.8511 -39.0117 248° West  Level FlightAware Approximate
01:10PM 65.8066 -39.2784 248° West  Level FlightAware Approximate
01:11PM 65.7617 -39.5442 248° West  Level FlightAware Approximate
01:12PM 65.7162 -39.8090 247° West  Level FlightAware Approximate
01:13PM 65.6704 -40.0729 247° West  Level FlightAware Approximate
01:14PM 65.6240 -40.3358 247° West  Level FlightAware Approximate
01:15PM 65.5773 -40.5979 247° West  Level FlightAware Approximate
01:16PM 65.5301 -40.8589 247° West  Level FlightAware Approximate
01:17PM 65.4824 -41.1190 246° West  Level FlightAware Approximate
01:18PM 65.4343 -41.3782 246° West  Level FlightAware Approximate
01:19PM 65.3857 -41.6364 246° West  Level FlightAware Approximate
01:20PM 65.3367 -41.8937 246° West  Level FlightAware Approximate
01:21PM 65.2873 -42.1500 245° Southwest  Level FlightAware Approximate
01:22PM 65.2374 -42.4053 245° Southwest  Level FlightAware Approximate
01:23PM 65.1872 -42.6597 245° Southwest  Level FlightAware Approximate
01:24PM 65.1364 -42.9131 245° Southwest  Level FlightAware Approximate
01:25PM 65.0853 -43.1655 244° Southwest  Level FlightAware Approximate
01:26PM 65.0337 -43.4170 244° Southwest  Level FlightAware Approximate
01:27PM 64.9817 -43.6675 244° Southwest  Level FlightAware Approximate
01:28PM 64.9293 -43.9170 244° Southwest  Level FlightAware Approximate
01:29PM 64.8765 -44.1655 243° Southwest  Level FlightAware Approximate
01:30PM 64.8232 -44.4131 243° Southwest  Level FlightAware Approximate
01:31PM 64.7696 -44.6596 243° Southwest  Level FlightAware Approximate
01:32PM 64.7155 -44.9052 243° Southwest  Level FlightAware Approximate
01:33PM 64.6611 -45.1498 243° Southwest  Level FlightAware Approximate
01:34PM 64.6062 -45.3935 242° Southwest  Level FlightAware Approximate
01:35PM 64.5510 -45.6361 242° Southwest  Level FlightAware Approximate
01:36PM 64.4953 -45.8777 242° Southwest  Level FlightAware Approximate
01:37PM 64.4392 -46.1184 242° Southwest  Level FlightAware Approximate
01:38PM 64.3828 -46.3581 242° Southwest  Level FlightAware Approximate
01:39PM 64.3260 -46.5968 241° Southwest  Level FlightAware Approximate
01:40PM 64.2687 -46.8345 241° Southwest  Level FlightAware Approximate
01:41PM 64.2111 -47.0712 241° Southwest  Level FlightAware Approximate
01:42PM 64.1531 -47.3069 241° Southwest  Level FlightAware Approximate
01:43PM 64.0948 -47.5417 240° Southwest  Level FlightAware Approximate
01:44PM 64.0360 -47.7755 240° Southwest  Level FlightAware Approximate
01:45PM 63.9769 -48.0082 240° Southwest  Level FlightAware Approximate
01:46PM 63.9174 -48.2400 240° Southwest  Level FlightAware Approximate
01:47PM 63.8576 -48.4708 240° Southwest  Level FlightAware Approximate
01:48PM 63.7973 -48.7007 239° Southwest  Level FlightAware Approximate
01:49PM 63.7367 -48.9295 239° Southwest  Level FlightAware Approximate
01:50PM 63.6758 -49.1574 239° Southwest  Level FlightAware Approximate
01:51PM 63.6145 -49.3843 239° Southwest  Level FlightAware Approximate
01:52PM 63.5528 -49.6101 239° Southwest  Level FlightAware Approximate
01:53PM 63.4908 -49.8351 238° Southwest  Level FlightAware Approximate
01:54PM 63.4284 -50.0590 238° Southwest  Level FlightAware Approximate
01:55PM 63.3657 -50.2820 238° Southwest  Level FlightAware Approximate
01:56PM 63.3027 -50.5040 238° Southwest  Level FlightAware Approximate
01:57PM 63.2392 -50.7250 238° Southwest  Level FlightAware Approximate
01:58PM 63.1755 -50.9451 237° Southwest  Level FlightAware Approximate
01:59PM 63.1114 -51.1642 237° Southwest  Level FlightAware Approximate
02:00PM 63.0470 -51.3823 237° Southwest  Level FlightAware Approximate
02:01PM 62.9822 -51.5994 237° Southwest  Level FlightAware Approximate
02:02PM 62.9171 -51.8156 237° Southwest  Level FlightAware Approximate
02:03PM 62.8517 -52.0308 236° Southwest  Level FlightAware Approximate
02:04PM 62.7860 -52.2451 236° Southwest  Level FlightAware Approximate
02:05PM 62.7199 -52.4584 236° Southwest  Level FlightAware Approximate
02:06PM 62.6535 -52.6708 236° Southwest  Level FlightAware Approximate
02:07PM 62.5868 -52.8822 236° Southwest  Level FlightAware Approximate
02:08PM 62.5198 -53.0927 235° Southwest  Level FlightAware Approximate
02:09PM 62.4524 -53.3022 235° Southwest  Level FlightAware Approximate
02:10PM 62.3848 -53.5107 235° Southwest  Level FlightAware Approximate
02:11PM 62.3168 -53.7184 235° Southwest  Level FlightAware Approximate
02:12PM 62.2485 -53.9250 235° Southwest  Level FlightAware Approximate
02:13PM 62.1800 -54.1308 235° Southwest  Level FlightAware Approximate
02:14PM 62.1111 -54.3356 234° Southwest  Level FlightAware Approximate
02:15PM 62.0419 -54.5395 234° Southwest  Level FlightAware Approximate
02:16PM 61.9724 -54.7425 234° Southwest  Level FlightAware Approximate
02:17PM 61.9026 -54.9445 234° Southwest  Level FlightAware Approximate
02:18PM 61.8101 -55.0994 233° Southwest  Level Estimated
02:19PM 61.7419 -55.3028 235° Southwest  Level FlightAware Approximate
02:20PM 61.6734 -55.5054 235° Southwest  Level FlightAware Approximate
02:21PM 61.6047 -55.7070 234° Southwest  Level FlightAware Approximate
02:22PM 61.5356 -55.9078 234° Southwest  Level FlightAware Approximate
02:23PM 61.4663 -56.1077 234° Southwest  Level FlightAware Approximate
02:24PM 61.3966 -56.3066 234° Southwest  Level FlightAware Approximate
02:25PM 61.3267 -56.5047 234° Southwest  Level FlightAware Approximate
02:26PM 61.2565 -56.7019 234° Southwest  Level FlightAware Approximate
02:27PM 61.1617 -56.8474 232° Southwest  Level Estimated
02:28PM 61.0922 -57.0446 234° Southwest  Level FlightAware Approximate
02:29PM 61.0223 -57.2409 234° Southwest  Level FlightAware Approximate
02:30PM 60.9523 -57.4364 234° Southwest  Level FlightAware Approximate
02:31PM 60.8819 -57.6311 233° Southwest  Level FlightAware Approximate
02:32PM 60.8112 -57.8248 233° Southwest  Level FlightAware Approximate
02:33PM 60.7403 -58.0178 233° Southwest  Level FlightAware Approximate
02:34PM 60.6691 -58.2098 233° Southwest  Level FlightAware Approximate
02:34PM 63.2833 -56.2667 215° Southwest 450 518 37,000  Level Gander Center
02:35PM 60.5720 -58.3476 215° Southwest  Level Estimated
02:35PM 63.2167 -56.5000 238° Southwest 450 518 37,000  Level Gander Center
02:36PM 60.4972 -58.4531 215° Southwest  Level Estimated
02:36PM 63.1333 -56.7333 232° Southwest 450 518 37,000  Level Gander Center
02:37PM 60.4223 -58.5581 215° Southwest  Level Estimated
02:37PM 63.0500 -56.9333 227° Southwest 450 518 37,000  Level Gander Center
02:38PM 60.3473 -58.6626 215° Southwest  Level Estimated
02:38PM 62.9833 -57.1667 238° Southwest 450 518 37,000  Level Gander Center
02:39PM 60.2723 -58.7667 215° Southwest  Level Estimated
02:39PM 62.9167 -57.3500 231° Southwest 450 518 37,000  Level Gander Center
02:47PM 62.2833 -59.2000 231° Southwest 320 368 37,000  Level Montreal Center
02:48PM 62.2333 -59.3667 237° Southwest 400 460 37,000  Level Gander Center
02:49PM 62.2879 -59.1026 233° Southwest  Level FlightAware Approximate
02:49PM 62.1500 -59.5500 226° Southwest 440 506 37,000  Level Gander Center
02:50PM 62.2150 -59.3025 232° Southwest  Level FlightAware Approximate
02:50PM 62.0667 -59.8333 238° Southwest 450 518 37,000  Level Gander Center
02:51PM 62.1418 -59.5015 232° Southwest  Level FlightAware Approximate
02:51PM 61.9833 -59.9833 220° Southwest 450 518 37,000  Level Gander Center
02:52PM 62.0683 -59.6995 232° Southwest  Level FlightAware Approximate
02:52PM 61.9000 -60.1833 229° Southwest 450 518 37,000  Level Gander Center
02:53PM 61.9945 -59.8965 231° Southwest  Level FlightAware Approximate
02:53PM 61.8167 -60.4000 231° Southwest 450 518 37,000  Level Gander Center
02:54PM 61.7667 -60.5833 240° Southwest 440 506 37,000  Level Gander Center
02:55PM 61.6833 -60.8000 231° Southwest 450 518 37,000  Level Gander Center
02:56PM 61.6000 -61.0000 229° Southwest 450 518 37,000  Level Gander Center
02:57PM 61.5167 -61.1833 226° Southwest 450 518 37,000  Level Gander Center
02:58PM 61.4333 -61.3833 229° Southwest 450 518 37,000  Level Gander Center
02:59PM 61.3667 -61.6000 237° Southwest 450 518 37,000  Level Gander Center
03:00PM 61.2833 -61.8000 229° Southwest 450 518 37,000  Level Gander Center
03:01PM 61.2000 -61.9667 224° Southwest 440 506 37,000  Level Gander Center
03:02PM 61.1167 -62.1833 232° Southwest 450 518 37,000  Level Gander Center
03:03PM 61.0500 -62.3833 236° Southwest 440 506 37,000  Level Gander Center
03:04PM 60.9667 -62.5500 224° Southwest 440 506 37,000  Level Gander Center
03:05PM 60.8667 -62.7500 224° Southwest 440 506 37,000  Level Gander Center
03:06PM 60.7833 -62.9500 230° Southwest 420 483 37,000 420 Level Gander Center
03:07PM 60.7000 -63.1500 230° Southwest 440 506 37,900 480 Climbing Gander Center
03:08PM 60.6167 -63.3167 224° Southwest 440 506 38,000  Climbing Gander Center
03:09PM 60.5500 -63.5167 236° Southwest 440 506 38,000  Level Gander Center
03:10PM 60.4667 -63.7167 230° Southwest 440 506 38,000  Level Gander Center
03:11PM 60.3833 -63.8667 222° Southwest 440 506 38,000  Level Gander Center
03:12PM 60.3000 -64.0667 230° Southwest 430 495 38,000  Level Gander Center
03:13PM 60.2167 -64.2333 225° Southwest 430 495 38,000  Level Gander Center
03:14PM 60.1500 -64.4167 234° Southwest 430 495 38,000  Level Gander Center
03:15PM 60.0667 -64.5833 225° Southwest 440 506 38,000  Level Gander Center
03:16PM 59.9667 -64.7667 223° Southwest 440 506 38,000  Level Gander Center
03:17PM 59.8833 -64.9333 225° Southwest 440 506 38,000  Level Gander Center
03:18PM 59.8000 -65.1167 228° Southwest 430 495 38,000  Level Gander Center
03:19PM 59.7333 -65.3167 237° Southwest 440 506 38,000  Level Gander Center
03:20PM 59.6333 -65.4667 217° Southwest 440 506 38,000  Level Gander Center
03:32PM 58.6500 -67.4333 224° Southwest 430 495 38,000  Level Gander Center
03:32PM 58.6000 -67.4667 199° South 430 495 38,000  Level Montreal Center
03:33PM 58.8797 -66.9500 225° Southwest  Level FlightAware Approximate
03:33PM 58.5333 -67.6333 233° Southwest 430 495 38,000  Level Gander Center
03:34PM 58.8150 -67.0729 225° Southwest  Level FlightAware Approximate
03:34PM 58.4667 -67.7833 230° Southwest 430 495 38,000  Level Gander Center
03:35PM 58.7501 -67.1953 224° Southwest  Level FlightAware Approximate
03:35PM 58.3667 -67.9667 224° Southwest 440 506 38,000  Level Gander Center
03:36PM 58.6852 -67.3173 224° Southwest  Level FlightAware Approximate
03:36PM 58.2833 -68.1000 220° Southwest 440 506 38,000  Level Gander Center
03:37PM 58.6201 -67.4388 224° Southwest  Level FlightAware Approximate
03:37PM 58.2000 -68.2833 229° Southwest 440 506 38,000  Level Gander Center
03:38PM 58.1167 -68.4167 220° Southwest 420 483 38,000  Level Gander Center
03:39PM 57.9833 -68.5333 205° Southwest 440 506 38,000  Level Montreal Center
03:40PM 57.9000 -68.6667 220° Southwest 430 495 38,000  Level Montreal Center
03:41PM 57.8000 -68.8167 219° Southwest 430 495 38,000  Level Montreal Center
03:48PM 57.1500 -69.7167 215° Southwest 430 495 38,000  Level Gander Center
03:49PM 57.0500 -69.8500 216° Southwest 430 495 38,000  Level Gander Center
03:50PM 57.1912 -69.6127 216° Southwest  Level FlightAware Approximate
03:50PM 56.9500 -69.9833 216° Southwest 430 495 38,000  Level Gander Center
03:51PM 57.1171 -69.7092 215° Southwest  Level FlightAware Approximate
03:51PM 56.8500 -70.1167 216° Southwest 430 495 38,000  Level Gander Center
03:52PM 57.0429 -69.8052 215° Southwest  Level FlightAware Approximate
03:52PM 56.7333 -70.2500 212° Southwest 430 495 38,000  Level Gander Center
03:53PM 56.9686 -69.9009 215° Southwest  Level FlightAware Approximate
03:53PM 56.6500 -70.3833 221° Southwest 430 495 38,000  Level Gander Center
03:54PM 56.8942 -69.9962 215° Southwest  Level FlightAware Approximate
03:54PM 56.5500 -70.5000 213° Southwest 430 495 38,000  Level Gander Center
03:55PM 56.4500 -70.6000 209° Southwest 430 495 38,000  Level Gander Center
03:56PM 56.3500 -70.7333 216° Southwest 430 495 38,000  Level Gander Center
03:57PM 56.2500 -70.8500 213° Southwest 430 495 38,000  Level Gander Center
03:58PM 56.1500 -70.9833 217° Southwest 440 506 38,000  Level Gander Center
03:59PM 56.0333 -71.1000 209° Southwest 440 506 38,000  Level Gander Center
04:00PM 55.9500 -71.2000 214° Southwest 440 506 38,000  Level Gander Center
04:01PM 55.8500 -71.3333 217° Southwest 440 506 38,000  Level Gander Center
04:02PM 55.7500 -71.4500 213° Southwest 440 506 38,000  Level Gander Center
04:03PM 55.6500 -71.5833 217° Southwest 450 518 38,000  Level Gander Center
04:04PM 55.5333 -71.7000 210° Southwest 440 506 38,000  Level Gander Center
04:05PM 55.4500 -71.8167 218° Southwest 440 506 38,000  Level Gander Center
04:06PM 55.3333 -71.9333 210° Southwest 440 506 38,000  Level Gander Center
04:07PM 55.2333 -72.0333 210° Southwest 440 506 38,000  Level Gander Center
04:08PM 55.1333 -72.1833 221° Southwest 440 506 38,000  Level Gander Center
04:09PM 55.0333 -72.3000 214° Southwest 430 495 38,000  Level Gander Center
04:10PM 54.9333 -72.4000 210° Southwest 430 495 38,000  Level Gander Center
04:11PM 54.8333 -72.5167 214° Southwest 430 495 38,000  Level Gander Center
04:12PM 54.7333 -72.6333 214° Southwest 430 495 38,000  Level Gander Center
04:13PM 54.6333 -72.7500 214° Southwest 430 495 38,000  Level Gander Center
04:14PM 54.5333 -72.8333 206° Southwest 440 506 38,000  Level Gander Center
04:15PM 54.4167 -72.9500 210° Southwest 430 495 38,000  Level Montreal Center
04:16PM 54.3167 -73.0500 210° Southwest 430 495 38,000  Level Montreal Center
04:17PM 54.2000 -73.1667 210° Southwest 430 495 38,000  Level Montreal Center
04:18PM 54.1000 -73.2667 210° Southwest 430 495 38,000  Level Montreal Center
04:19PM 54.0000 -73.3833 214° Southwest 430 495 38,000  Level Montreal Center
04:20PM 53.8833 -73.5000 211° Southwest 430 495 38,000  Level Montreal Center
04:21PM 53.7833 -73.6000 211° Southwest 430 495 38,000  Level Montreal Center
04:22PM 53.6833 -73.7167 215° Southwest 430 495 38,000  Level Montreal Center
04:23PM 53.5833 -73.8000 206° Southwest 430 495 38,000  Level Montreal Center
04:24PM 53.4667 -73.9000 207° Southwest 440 506 38,000  Level Montreal Center
04:25PM 53.3500 -73.9833 203° Southwest 440 506 38,000  Level Montreal Center
04:26PM 53.2500 -74.0833 211° Southwest 440 506 38,000  Level Montreal Center
04:27PM 53.1333 -74.1667 203° Southwest 440 506 38,000  Level Montreal Center
04:28PM 53.0333 -74.2500 207° Southwest 440 506 38,000  Level Montreal Center
04:29PM 52.9167 -74.3500 207° Southwest 440 506 38,000  Level Montreal Center
04:30PM 52.8333 -74.4333 211° Southwest 440 506 38,000  Level Montreal Center
04:31PM 52.7167 -74.5167 203° Southwest 440 506 38,000  Level Montreal Center
04:32PM 52.6000 -74.6333 211° Southwest 440 506 38,000  Level Montreal Center
04:33PM 52.4833 -74.7167 204° Southwest 440 506 38,000  Level Montreal Center
04:34PM 52.3667 -74.8000 204° Southwest 440 506 38,000  Level Montreal Center
04:35PM 52.2667 -74.8667 202° Southwest 420 483 38,000  Level Montreal Center
04:36PM 52.1500 -74.9833 212° Southwest 440 506 38,000  Level Montreal Center
04:37PM 52.0333 -75.0667 204° Southwest 440 506 38,000  Level Montreal Center
04:38PM 51.9167 -75.1500 204° Southwest 450 518 38,000  Level Montreal Center
04:39PM 51.8000 -75.2333 204° Southwest 440 506 38,000  Level Montreal Center
04:40PM 51.7000 -75.3167 207° Southwest 440 506 38,000  Level Montreal Center
04:41PM 51.5833 -75.4167 208° Southwest 440 506 38,000  Level Montreal Center
04:42PM 51.4667 -75.4833 200° South 440 506 38,000  Level Montreal Center
04:43PM 51.3667 -75.5833 212° Southwest 440 506 38,000  Level Montreal Center
04:44PM 51.2500 -75.6667 204° Southwest 440 506 38,000  Level Montreal Center
04:45PM 51.1333 -75.7500 204° Southwest 430 495 38,000  Level Montreal Center
04:46PM 51.0333 -75.8333 208° Southwest 430 495 38,000  Level Montreal Center
04:47PM 50.9333 -75.9167 208° Southwest 430 495 38,000  Level Montreal Center
04:48PM 50.8167 -76.0000 204° Southwest 430 495 38,000  Level Montreal Center
04:49PM 50.7000 -76.0667 200° South 430 495 38,000  Level Montreal Center
04:50PM 50.6000 -76.1500 208° Southwest 430 495 38,000  Level Montreal Center
04:51PM 50.4833 -76.2333 204° Southwest 430 495 38,000  Level Montreal Center
04:52PM 50.3667 -76.3000 200° South 440 506 38,000  Level Montreal Center
04:53PM 50.2667 -76.3833 208° Southwest 440 506 38,000  Level Montreal Center
04:54PM 50.1500 -76.4667 205° Southwest 440 506 38,000  Level Montreal Center
04:55PM 50.0333 -76.5500 205° Southwest 440 506 38,000  Level Montreal Center
04:56PM 49.9167 -76.6167 200° South 440 506 38,000  Level Montreal Center
04:57PM 49.8000 -76.7167 209° Southwest 440 506 38,000  Level Montreal Center
04:58PM 49.7000 -76.8000 208° Southwest 440 506 38,000  Level Montreal Center
04:59PM 49.5833 -76.8667 200° South 450 518 38,000  Level Montreal Center
05:00PM 49.4667 -76.9500 205° Southwest 440 506 38,000  Level Montreal Center
05:01PM 49.3500 -77.0167 200° South 470 541 38,000  Level Montreal Center
05:02PM 49.2500 -77.1000 209° Southwest 430 495 38,000  Level Montreal Center
05:03PM 49.1333 -77.1667 201° Southwest 440 506 38,000  Level Montreal Center
05:04PM 49.0167 -77.2500 205° Southwest 440 506 38,000  Level Montreal Center
05:05PM 48.9000 -77.3167 201° Southwest 440 506 38,000  Level Montreal Center
05:23PM 46.8167 -78.6167 201° Southwest 450 518 38,000  Level Montreal Center
05:24PM 47.3742 -78.2733 200° South  Level FlightAware Approximate
05:24PM 46.6667 -78.6667 193° South 450 518 38,000  Level Toronto Center
05:25PM 47.2890 -78.3200 200° South  Level FlightAware Approximate
05:26PM 47.2037 -78.3665 200° South  Level FlightAware Approximate
05:27PM 47.1184 -78.4129 200° South  Level FlightAware Approximate
05:28PM 47.0336 -78.4609 204° Southwest  Level FlightAware Approximate
05:29PM 46.9242 -78.5257 201° Southwest  Level FlightAware Approximate
05:30PM 45.9952 -79.0504 193° South 452 520 38,000  Level FlightAware ADS-B (CYOW)
05:31PM 45.8684 -79.1186 201° Southwest 453 521 38,000  Level FlightAware ADS-B (CYOW)
05:35PM 45.4631 -79.3348 201° Southwest 452 520 38,000  Level FlightAware ADS-B
05:36PM 45.4518 -79.3407 200° South 450 518 38,000  Level FlightAware ADS-B
05:37PM 45.4518 -79.3407 200° South 449 517 38,000  Level FlightAware ADS-B
05:39PM 44.9992 -79.5780 200° South 449 517 38,000  Level FlightAware ADS-B
05:39PM 44.9992 -79.5780 200° South 450 518 38,000  Level FlightAware ADS-B
05:44PM 44.4444 -79.9170 204° Southwest 443 510 38,000  Level FlightAware ADS-B
05:45PM 44.2868 -80.0590 213° Southwest 444 511 38,000  Level FlightAware ADS-B
05:46PM 44.2223 -80.1167 213° Southwest 444 511 38,000  Level FlightAware ADS-B
05:46PM 44.1637 -80.1689 213° Southwest 444 511 38,000  Level FlightAware ADS-B
05:47PM 44.0879 -80.2363 213° Southwest 443 510 38,000  Level FlightAware ADS-B
05:48PM 44.0205 -80.2959 213° Southwest 443 510 38,000  Level FlightAware ADS-B
05:49PM 43.9458 -80.3621 212° Southwest 444 511 38,000  Level FlightAware ADS-B
05:49PM 43.8766 -80.4230 212° Southwest 446 513 38,000  Level FlightAware ADS-B
05:50PM 43.8021 -80.4885 212° Southwest 447 514 38,000  Level FlightAware ADS-B
05:50PM 43.7516 -80.5329 212° Southwest 447 514 38,000  Level FlightAware ADS-B
05:51PM 43.6790 -80.5964 212° Southwest 447 514 38,000  Level FlightAware ADS-B
05:52PM 43.5984 -80.6666 212° Southwest 448 516 38,000  Level FlightAware ADS-B
05:52PM 43.5405 -80.7169 212° Southwest 449 517 38,000  Level FlightAware ADS-B
05:53PM 43.4683 -80.7795 212° Southwest 449 517 38,000  Level FlightAware ADS-B
05:54PM 43.3833 -80.8529 212° Southwest 452 520 38,000  Level FlightAware ADS-B
05:54PM 43.4191 -80.8221 32° Northeast 452 520 38,000  Level FlightAware ADS-B
05:55PM 43.2411 -80.9753 212° Southwest 452 520 38,000  Level FlightAware ADS-B
05:56PM 43.1724 -81.0343 212° Southwest 452 520 38,000  Level FlightAware ADS-B
05:57PM 43.1084 -81.0890 212° Southwest 452 520 38,000  Level FlightAware ADS-B
05:57PM 43.0307 -81.1520 211° Southwest 454 522 38,000  Level FlightAware ADS-B
05:58PM 42.9508 -81.2011 204° Southwest 456 525 38,000  Level FlightAware ADS-B
05:59PM 42.8764 -81.2487 205° Southwest 456 525 38,000  Level FlightAware ADS-B
05:59PM 42.8416 -81.2703 205° Southwest 457 526 38,000  Level FlightAware ADS-B
06:00PM 42.7470 -81.3285 204° Southwest 455 524 38,000  Level FlightAware ADS-B
06:01PM 42.6567 -81.3840 204° Southwest 454 522 38,000  Level FlightAware ADS-B
06:02PM 42.5325 -81.4600 204° Southwest 456 525 38,000  Level FlightAware ADS-B
06:04PM 42.2896 -81.6073 204° Southwest 457 526 38,000  Level FlightAware ADS-B
06:04PM 42.1833 -81.6500 204° Southwest 460 529 38,000  Level Toronto Center
06:05PM 42.0833 -81.7167 206° Southwest 460 529 38,000  Level Toronto Center
06:07PM 41.9411 -81.8169 208° Southwest 459 528 38,000  Level Cleveland Center
06:08PM 41.8231 -81.8872 204° Southwest 463 533 38,000  Level Cleveland Center
06:09PM 41.7069 -81.9572 204° Southwest 460 529 38,000  Level Cleveland Center
06:10PM 41.5919 -82.0244 204° Southwest 454 522 38,000  Level Cleveland Center
06:11PM 41.4756 -82.0936 204° Southwest 457 526 38,000  Level Cleveland Center
06:12PM 41.3322 -82.1714 202° Southwest 463 533 38,000  Level Cleveland Center
06:13PM 41.2058 -82.2161 195° South 469 540 38,000  Level Cleveland Center
06:14PM 41.0825 -82.2606 195° South 468 539 38,000  Level Cleveland Center
06:15PM 40.9567 -82.3044 195° South 469 540 38,000  Level Cleveland Center
06:16PM 40.8319 -82.3508 196° South 466 536 38,000  Level Indianapolis Center
06:17PM 40.7072 -82.3950 195° South 464 534 38,000  Level Indianapolis Center
06:23PM 39.8910 -82.6060 195° South 487 560 38,000  Level FlightAware ADS-B (KPMH)
06:24PM 39.7901 -82.6129 183° South 486 559 38,000  Level FlightAware ADS-B (KPMH)
06:25PM 39.7045 -82.6187 183° South 484 557 38,000  Level FlightAware ADS-B (KPMH)
06:25PM 39.6142 -82.6246 183° South 482 555 38,000  Level FlightAware ADS-B (KPMH)
06:26PM 39.5207 -82.6310 183° South 482 555 38,000  Level FlightAware ADS-B (KPMH)
06:27PM 39.4324 -82.6370 183° South 483 556 38,000  Level FlightAware ADS-B (KPMH)
06:27PM 39.3413 -82.6430 183° South 485 558 38,000  Level FlightAware ADS-B (KPMH)
06:28PM 39.2519 -82.6490 183° South 486 559 38,000  Level FlightAware ADS-B (KPMH)
06:29PM 39.1619 -82.6550 183° South 486 559 38,000  Level FlightAware ADS-B (KPMH)
06:29PM 39.1073 -82.6587 183° South 492 566 38,000  Level FlightAware ADS-B (KPMH)
06:30PM 38.9815 -82.6492 177° South 500 575 38,000  Level FlightAware ADS-B (KPMH)
06:31PM 38.8893 -82.6360 174° South 501 577 38,000  Level FlightAware ADS-B (KPMH)
06:31PM 38.7967 -82.6224 173° South 502 578 38,000  Level FlightAware ADS-B (KPMH)
06:32PM 38.7233 -82.6116 173° South 502 578 38,000  Level FlightAware ADS-B (KPMH)
06:33PM 38.6289 -82.5972 186° South 501 577 38,000  Level Indianapolis Center
06:40PM 37.6833 -82.7586 214° Southwest 476 548 38,000  Level Indianapolis Center
06:41PM 37.5664 -82.8228 204° Southwest 461 531 38,000  Level Indianapolis Center
06:48PM 36.7300 -83.3706 208° Southwest 451 519 38,000  Level Atlanta Center
06:49PM 36.6367 -83.4292 207° Southwest 459 528 38,000  Level Indianapolis Center
06:50PM 36.8569 -83.2712 207° Southwest  Level FlightAware Approximate
06:50PM 36.5244 -83.4997 207° Southwest 454 522 38,000  Level Indianapolis Center
06:51PM 36.7760 -83.3235 207° Southwest  Level FlightAware Approximate
06:51PM 36.4131 -83.5733 208° Southwest 448 516 38,000  Level Indianapolis Center
06:52PM 36.6951 -83.3758 207° Southwest  Level FlightAware Approximate
06:52PM 36.3019 -83.6433 207° Southwest 447 514 38,000  Level Indianapolis Center
06:53PM 36.6113 -83.4202 208° Southwest  Level FlightAware Approximate
06:53PM 36.1925 -83.7133 207° Southwest 443 510 38,000  Level Indianapolis Center
06:54PM 36.5307 -83.4732 208° Southwest  Level FlightAware Approximate
06:54PM 36.0767 -83.7894 208° Southwest 445 512 38,000  Level Atlanta Center
06:55PM 35.9664 -83.8567 206° Southwest 445 512 38,000  Level Atlanta Center
06:57PM 35.8544 -83.8949 192° South  Level FlightAware Approximate
06:58PM 35.5994 -83.9725 192° South 458 527 38,000  Level Atlanta Center
07:02PM 35.0839 -84.0947 191° South 470 541 38,000  Level Atlanta Center
07:03PM 34.9547 -84.1250 191° South 470 541 38,000  Level Atlanta Center
07:05PM 34.7000 -84.1878 191° South 470 541 38,000  Level Atlanta Center
07:06PM 34.5581 -84.2178 190° South 470 541 38,000  Level Atlanta Center
07:07PM 34.8675 -84.1422 191° South  Level FlightAware Approximate
07:07PM 34.4286 -84.2478 191° South 472 543 38,000  Level Atlanta Center
07:08PM 34.2992 -84.2778 191° South 477 549 38,000  Level Atlanta Center
07:09PM 34.1675 -84.3100 191° South 482 555 38,000  Level Atlanta Center
07:10PM 34.0297 -84.3447 192° South 493 567 38,000  Level Atlanta Center
07:11PM 33.9064 -84.3717 190° South 481 554 38,000  Level Atlanta Center
07:12PM 33.7728 -84.4011 190° South 481 554 38,000  Level Atlanta Center
07:13PM 33.6475 -84.4306 191° South 476 548 38,000  Level Atlanta Center
07:14PM 33.5119 -84.4375 182° South 482 555 38,000  Level Atlanta Center
07:15PM 33.3761 -84.4344 179° South 482 555 38,000 -180 Level Atlanta Center
07:16PM 33.2447 -84.4311 179° South 482 555 37,700 -300 Descending Atlanta Center
07:17PM 33.1111 -84.4281 179° South 477 549 37,400 -360 Descending Atlanta Center
07:18PM 32.9775 -84.4275 180° South 477 549 37,000 -420 Descending Atlanta Center
07:19PM 32.8439 -84.4269 180° South 477 549 36,600 -600 Descending Atlanta Center
07:21PM 32.7237 -84.4226 178° South  Level FlightAware Approximate
07:21PM 32.5808 -84.4161 178° South 477 549 35,300  Level Atlanta Center
07:22PM 32.4453 -84.4131 179° South 483 556 34,300 -900 Descending Atlanta Center
07:23PM 32.3056 -84.4100 179° South 488 562 33,600 -660 Descending Atlanta Center
07:24PM 32.1719 -84.4069 179° South 488 562 33,000 -120 Descending Atlanta Center
07:31PM 31.3038 -84.3885 179° South 486 559 33,000  Level FlightAware ADS-B (KTLH)
07:32PM 31.1540 -84.3854 179° South 474 545 33,000  Level FlightAware ADS-B (KTLH)
07:32PM 31.0704 -84.3838 179° South 471 542 33,000  Level FlightAware ADS-B (KTLH)
07:33PM 30.9826 -84.3822 179° South 467 537 33,000  Level FlightAware ADS-B (KTLH)
07:34PM 30.8878 -84.3803 179° South 466 536 33,000  Level FlightAware ADS-B (KTLH)
07:34PM 30.8172 -84.3790 179° South 463 533 33,000  Level FlightAware ADS-B (KTLH)
07:35PM 30.7238 -84.3772 179° South 465 535 33,000  Level FlightAware ADS-B (KTLH)
07:36PM 30.6345 -84.3675 175° South 477 549 33,000  Level FlightAware ADS-B (KTLH)
07:37PM 30.5392 -84.3414 167° South 478 550 33,000  Level FlightAware ADS-B (KTLH)
07:37PM 30.4579 -84.3055 159° South 481 554 33,000  Level FlightAware ADS-B (KTLH)
07:38PM 30.3770 -84.2557 152° Southeast 480 552 33,000  Level FlightAware ADS-B (KTLH)
07:38PM 30.3015 -84.2067 151° Southeast 479 551 33,000  Level FlightAware ADS-B (KTLH)
07:39PM 30.2325 -84.1619 151° Southeast 477 549 33,000  Level FlightAware ADS-B (KTLH)
07:40PM 30.1469 -84.1060 151° Southeast 480 552 33,000  Level FlightAware ADS-B (KTLH)
07:40PM 30.0954 -84.0724 151° Southeast 476 548 33,000  Level FlightAware ADS-B (KTLH)
07:41PM 30.0010 -84.0110 151° Southeast 474 545 33,000  Level FlightAware ADS-B (KTLH)
07:42PM 29.9213 -83.9595 151° Southeast 475 547 33,000  Level FlightAware ADS-B (KTLH)
07:42PM 29.8759 -83.9301 151° Southeast 476 548 33,000  Level FlightAware ADS-B (KTLH)
07:53PM 28.6939 -83.1753 151° Southeast 471 542 33,000  Level FlightAware ADS-B (KMCO)
07:53PM 28.6313 -83.1359 151° Southeast 470 541 33,000  Level FlightAware ADS-B (KMCO)
07:54PM 28.4915 -83.0481 151° Southeast 472 543 33,000  Level FlightAware ADS-B (KMCO)
07:55PM 28.4187 -83.0024 151° Southeast 471 542 33,000  Level FlightAware ADS-B (KMCO)
07:56PM 28.2990 -82.9275 151° Southeast 470 541 33,000  Level FlightAware ADS-B (KMCO)
07:57PM 28.2017 -82.8668 151° Southeast 467 537 33,000  Level FlightAware ADS-B (KMCO)
07:58PM 28.0988 -82.8028 151° Southeast 465 535 33,000  Level FlightAware ADS-B (KMCO)
07:59PM 28.0063 -82.7453 151° Southeast 466 536 33,000  Level FlightAware ADS-B (KMCO)
07:59PM 27.9394 -82.7038 151° Southeast 466 536 33,000  Level FlightAware ADS-B (KMCO)
08:00PM 27.8061 -82.6172 150° Southeast 464 534 33,000  Level FlightAware ADS-B (KMCO)
08:01PM 27.7685 -82.6001 158° South 443 510 33,000  Level FlightAware ADS-B (KMCO)
08:01PM 27.7281 -82.5943 173° South 423 487 33,000  Level FlightAware ADS-B (KMCO)
08:06PM 27.1163 -82.5816 179° South 433 498 33,000  Level FlightAware ADS-B (KMCO)
08:08PM 26.9690 -82.5785 179° South 435 501 33,000  Level FlightAware ADS-B (KMCO)
08:10PM 26.6503 -82.5720 179° South 434 499 33,000  Level FlightAware ADS-B (KMCO)
08:11PM 26.5712 -82.5704 179° South 435 501 33,000  Level FlightAware ADS-B (KMCO)
08:11PM 26.4856 -82.5687 179° South 436 502 33,000  Level FlightAware ADS-B (KMCO)
08:12PM 26.4047 -82.5670 179° South 439 505 33,000  Level FlightAware ADS-B (KMCO)
08:13PM 26.3177 -82.5652 179° South 440 506 33,000  Level FlightAware ADS-B (KMCO)
08:13PM 26.2370 -82.5635 179° South 439 505 33,000  Level FlightAware ADS-B (KMCO)
08:14PM 26.1523 -82.5617 179° South 437 503 33,000  Level FlightAware ADS-B (KMCO)
08:15PM 26.0853 -82.5604 179° South 437 503 33,000  Level FlightAware ADS-B (KMCO)
08:15PM 26.0045 -82.5588 179° South 437 503 33,000  Level FlightAware ADS-B (KMCO)
08:16PM 25.9331 -82.5574 179° South 437 503 33,000  Level FlightAware ADS-B (KMCO)
08:17PM 25.8520 -82.5557 179° South 436 502 33,000  Level FlightAware ADS-B (KMCO)
08:17PM 25.7800 -82.5543 179° South 436 502 33,000  Level FlightAware ADS-B (KMCO)
08:18PM 25.6897 -82.5525 179° South 437 503 33,000  Level FlightAware ADS-B (KMCO)
08:18PM 25.6332 -82.5513 179° South 435 501 33,000  Level FlightAware ADS-B (KMCO)
08:19PM 25.5333 -82.5525 179° South 440 506 33,000  Level Miami Center
08:20PM 25.4103 -82.5511 179° South 440 506 33,000  Level Miami Center
08:21PM 25.2914 -82.5481 179° South 440 506 33,000  Level Miami Center
08:22PM 25.1703 -82.5447 179° South 440 506 33,000  Level Miami Center
08:23PM 25.0453 -82.5433 179° South 440 506 33,000  Level Miami Center
08:24PM 24.9261 -82.5425 180° South 440 506 33,000  Level Miami Center
08:25PM 24.8031 -82.5389 178° South 440 506 33,000 -240 Level Miami Center
08:26PM 24.6842 -82.5358 179° South 440 506 32,600 -1,260 Descending Miami Center
08:27PM 24.5550 -82.5344 179° South 435 501 30,500 -1,920 Descending Miami Center
08:28PM 24.4403 -82.5292 178° South 430 495 28,800 -1,740 Descending Miami Center
08:29PM 24.3256 -82.5286 180° South 418 481 27,100 -1,740 Descending Miami Center
08:30PM 24.2192 -82.5283 180° South 404 465 25,400 -1,800 Descending Miami Center
08:31PM 24.1044 -82.5231 178° South 404 465 23,600 -1,740 Descending Miami Center
08:32PM 23.9961 -82.5206 179° South 404 465 22,000 -1,620 Descending Miami Center
08:35PM 23.7387 -82.4805 175° South  Level FlightAware Approximate
08:42PM 22.9891 -82.4091 180° South  Level Estimated
08:43PM 22.9891 -82.4091 180° South  Level Estimated
08:44PM 22.9891 -82.4091 180° South  Level Estimated
08:45PM 22.9891 -82.4091 180° South  Level Estimated
08:46PM 22.9891 -82.4091 180° South  Level Estimated
08:47PM 22.9891 -82.4091 180° South  Level Estimated
08:48PM 22.9891 -82.4091 180° South  Level Estimated
08:49PM 22.9891 -82.4091 180° South  Level Estimated
08:50PM 22.9891 -82.4091 180° South  Level Estimated
08:51PM 22.9891 -82.4091 180° South  Level Estimated
08:52PM 22.9891 -82.4091 180° South  Level Estimated
08:53PM 22.9891 -82.4091 180° South  Level Estimated
08:54PM 22.9891 -82.4091 180° South  Level Estimated
08:55PM 22.9891 -82.4091 180° South  Level Estimated
08:56PM 22.9891 -82.4091 180° South  Level Estimated
08:57PM 22.9891 -82.4091 180° South  Level Estimated
08:58PM 22.9891 -82.4091 180° South  Level Estimated
08:59PM 22.9891 -82.4091 180° South  Level Estimated
09:00PM 22.9891 -82.4091 180° South  Level Estimated
09:01PM 22.9891 -82.4091 180° South  Level Estimated
09:02PM 22.9891 -82.4091 180° South  Level Estimated
09:03PM 22.9891 -82.4091 180° South  Level Estimated
09:04PM 22.9891 -82.4091 180° South  Level Estimated